Time;durP1;ratioP1;P1;durP2;ratioP2;P2;SDS_P1;SDS_P2;PMS_P1;PMS_P2;Temp;Humidity;BMP_temperature;BMP_pressure;BME280_temperature;BME280_humidity;BME280_pressure;Samples;Min_cycle;Max_cycle;Signal;HPM_P1;HPM_P2
2021/08/03 00:04:40;;;;;;;;;;;21.00;59.60;;;;;;20907270;28;19962;-73
2021/08/03 00:14:45;;;;;;;;;;;20.90;59.60;;;;;;20906644;28;20366;-73
2021/08/03 00:24:45;;;;;;;;;;;20.90;59.60;;;;;;20906951;28;19917;-73
2021/08/03 00:34:46;;;;;;;;;;;20.80;59.60;;;;;;20905134;28;19915;-74
2021/08/03 00:44:47;;;;;;;;;;;20.90;59.70;;;;;;20906301;28;19917;-74
2021/08/03 00:54:55;;;;;;;;;;;20.90;59.70;;;;;;20888933;28;19958;-73
2021/08/03 01:04:56;;;;;;;;;;;20.80;59.70;;;;;;20889604;28;19923;-74
2021/08/03 01:14:57;;;;;;;;;;;20.80;59.80;;;;;;20920680;28;20278;-74
2021/08/03 01:25:00;;;;;;;;;;;20.80;59.90;;;;;;20902441;28;19927;-74
2021/08/03 01:35:02;;;;;;;;;;;20.80;59.90;;;;;;20902178;28;19917;-73
2021/08/03 01:45:03;;;;;;;;;;;20.80;59.90;;;;;;20886212;28;19916;-75
2021/08/03 01:55:06;;;;;;;;;;;20.80;60.00;;;;;;20900449;28;20425;-74
2021/08/03 02:05:12;;;;;;;;;;;20.80;60.00;;;;;;20884028;28;19928;-73
2021/08/03 02:15:21;;;;;;;;;;;20.70;60.00;;;;;;20885156;28;19948;-73
2021/08/03 02:25:24;;;;;;;;;;;20.80;60.10;;;;;;20881965;28;20375;-77
2021/08/03 02:35:33;;;;;;;;;;;20.80;60.20;;;;;;20897757;28;20350;-73
2021/08/03 02:45:34;;;;;;;;;;;20.80;60.30;;;;;;20880275;28;20351;-72
2021/08/03 02:55:40;;;;;;;;;;;20.80;60.50;;;;;;20896137;28;19969;-74
2021/08/03 03:05:41;;;;;;;;;;;20.80;60.60;;;;;;20879409;28;19924;-75
2021/08/03 03:15:42;;;;;;;;;;;20.70;60.60;;;;;;20895048;28;20367;-73
2021/08/03 03:25:44;;;;;;;;;;;20.70;60.70;;;;;;20877431;28;20271;-75
2021/08/03 03:35:45;;;;;;;;;;;20.70;60.80;;;;;;20894272;28;19915;-73
2021/08/03 03:45:48;;;;;;;;;;;20.70;60.80;;;;;;20892465;28;20003;-78
2021/08/03 03:55:50;;;;;;;;;;;20.70;60.90;;;;;;20891707;28;20367;-74
2021/08/03 04:05:51;;;;;;;;;;;20.70;60.90;;;;;;20908236;28;19913;-76
2021/08/03 04:15:52;;;;;;;;;;;20.70;61.00;;;;;;20890954;28;19965;-73
2021/08/03 04:25:53;;;;;;;;;;;20.70;61.10;;;;;;20890027;28;19917;-73
2021/08/03 04:35:53;;;;;;;;;;;20.80;61.20;;;;;;20905486;28;19908;-72
2021/08/03 04:45:54;;;;;;;;;;;20.70;61.20;;;;;;20902939;28;19921;-74
2021/08/03 04:55:54;;;;;;;;;;;20.60;61.20;;;;;;20924438;28;20435;-74
2021/08/03 05:05:55;;;;;;;;;;;20.60;61.20;;;;;;20907280;28;19920;-75
2021/08/03 05:15:55;;;;;;;;;;;20.60;61.30;;;;;;20920694;28;20355;-73
2021/08/03 05:25:56;;;;;;;;;;;20.60;61.30;;;;;;20915890;28;20355;-72
2021/08/03 05:35:56;;;;;;;;;;;20.60;61.40;;;;;;20900948;28;19909;-72
2021/08/03 05:45:57;;;;;;;;;;;20.60;61.40;;;;;;20917219;28;20343;-72
2021/08/03 05:55:57;;;;;;;;;;;20.60;61.40;;;;;;20917530;28;19963;-71
2021/08/03 06:05:58;;;;;;;;;;;20.60;61.50;;;;;;20883078;28;19923;-75
2021/08/03 06:15:58;;;;;;;;;;;20.50;61.50;;;;;;20916681;28;19909;-74
2021/08/03 06:26:00;;;;;;;;;;;20.60;61.60;;;;;;20898389;28;19917;-72
2021/08/03 06:36:00;;;;;;;;;;;20.60;61.60;;;;;;20896925;28;20031;-72
2021/08/03 06:46:07;;;;;;;;;;;20.60;61.70;;;;;;20896070;28;19921;-71
2021/08/03 06:56:09;;;;;;;;;;;20.70;61.70;;;;;;20895416;28;20506;-71
2021/08/03 07:06:09;;;;;;;;;;;20.80;61.80;;;;;;20911332;28;19916;-71
2021/08/03 07:16:10;;;;;;;;;;;20.70;61.80;;;;;;20893673;28;19909;-71
2021/08/03 07:26:10;;;;;;;;;;;20.80;61.90;;;;;;20909398;28;19924;-74
2021/08/03 07:36:13;;;;;;;;;;;20.70;61.90;;;;;;20908855;28;19908;-73
2021/08/03 07:46:13;;;;;;;;;;;20.70;61.80;;;;;;20908170;28;20351;-71
2021/08/03 07:56:14;;;;;;;;;;;20.70;61.80;;;;;;20908416;28;19916;-72
2021/08/03 08:06:15;;;;;;;;;;;20.70;61.80;;;;;;20889745;28;19917;-71
2021/08/03 08:16:15;;;;;;;;;;;20.70;61.80;;;;;;20890630;28;19916;-71
2021/08/03 08:26:16;;;;;;;;;;;20.80;61.90;;;;;;20889009;28;19963;-72
2021/08/03 08:36:17;;;;;;;;;;;20.80;61.80;;;;;;20888223;28;20334;-71
2021/08/03 08:46:18;;;;;;;;;;;20.80;61.80;;;;;;20906201;28;19920;-71
2021/08/03 08:56:18;;;;;;;;;;;20.80;61.80;;;;;;20887939;28;20579;-70
2021/08/03 09:06:22;;;;;;;;;;;20.80;61.80;;;;;;20905102;28;19962;-74
2021/08/03 09:16:42;;;;;;;;;;;20.70;61.70;;;;;;20886707;28;19917;-72
2021/08/03 09:26:47;;;;;;;;;;;20.80;61.80;;;;;;20905469;28;20015;-71
2021/08/03 09:36:48;;;;;;;;;;;20.80;61.80;;;;;;20917794;28;20367;-70
2021/08/03 09:46:56;;;;;;;;;;;20.80;61.70;;;;;;21320576;22;20019;-82
2021/08/03 09:56:56;;;;;;;;;;;20.80;61.70;;;;;;20976299;28;19908;-81
2021/08/03 10:06:57;;;;;;;;;;;20.80;61.60;;;;;;20984478;28;19916;-82
2021/08/03 10:16:57;;;;;;;;;;;20.80;61.60;;;;;;20984336;28;19915;-81
2021/08/03 10:27:04;;;;;;;;;;;20.80;61.60;;;;;;20999786;28;19917;-81
2021/08/03 10:37:04;;;;;;;;;;;20.90;61.50;;;;;;21016059;28;20005;-81
2021/08/03 10:47:25;;;;;;;;;;;21.00;61.50;;;;;;20981581;28;20305;-82
2021/08/03 10:57:25;;;;;;;;;;;20.90;61.40;;;;;;20980314;28;19927;-82
2021/08/03 11:07:26;;;;;;;;;;;20.90;61.30;;;;;;20997076;28;19916;-82
2021/08/03 11:17:45;;;;;;;;;;;20.90;61.10;;;;;;20995675;28;19908;-82
2021/08/03 11:27:46;;;;;;;;;;;20.80;61.00;;;;;;20994050;28;20013;-81
2021/08/03 11:37:47;;;;;;;;;;;20.80;61.00;;;;;;20993580;28;19908;-81
2021/08/03 11:47:47;;;;;;;;;;;20.80;61.00;;;;;;20975198;28;19932;-81
2021/08/03 11:57:48;;;;;;;;;;;20.90;61.00;;;;;;21008808;28;19908;-81
2021/08/03 12:07:53;;;;;;;;;;;20.90;61.00;;;;;;20974875;28;20151;-81
2021/08/03 12:18:01;;;;;;;;;;;20.90;60.90;;;;;;20974815;28;19912;-80
2021/08/03 12:28:01;;;;;;;;;;;21.00;60.80;;;;;;20974460;28;19927;-81
2021/08/03 12:38:20;;;;;;;;;;;21.00;60.90;;;;;;20975314;28;19909;-80
2021/08/03 12:48:21;;;;;;;;;;;21.00;60.60;;;;;;20987499;28;20003;-80
2021/08/03 12:58:51;;;;;;;;;;;21.00;60.60;;;;;;20989802;28;19951;-79
2021/08/03 13:08:51;;;;;;;;;;;21.00;60.70;;;;;;21001234;28;19922;-80
2021/08/03 13:18:52;;;;;;;;;;;21.00;60.70;;;;;;21006875;28;19966;-80
2021/08/03 13:28:55;;;;;;;;;;;21.10;60.70;;;;;;21005218;28;19924;-81
2021/08/03 13:38:55;;;;;;;;;;;21.10;60.70;;;;;;21005030;28;19912;-81
2021/08/03 13:48:56;;;;;;;;;;;21.10;60.70;;;;;;21005422;28;19919;-81
2021/08/03 13:58:59;;;;;;;;;;;21.10;60.70;;;;;;21003674;28;19909;-82
2021/08/03 14:08:59;;;;;;;;;;;21.10;60.80;;;;;;21000905;28;20007;-80
2021/08/03 14:19:00;;;;;;;;;;;21.10;60.80;;;;;;20980438;28;20015;-79
2021/08/03 14:29:00;;;;;;;;;;;21.10;60.80;;;;;;20997332;28;19920;-80
2021/08/03 14:39:01;;;;;;;;;;;21.10;60.70;;;;;;20994775;28;19912;-79
2021/08/03 14:49:01;;;;;;;;;;;21.00;60.70;;;;;;20995607;28;19999;-80
2021/08/03 14:59:02;;;;;;;;;;;21.00;60.60;;;;;;20962061;28;19908;-77
2021/08/03 15:09:03;;;;;;;;;;;21.00;60.70;;;;;;20977476;28;20015;-80
2021/08/03 15:19:03;;;;;;;;;;;21.00;60.70;;;;;;20994032;28;19962;-79
2021/08/03 15:29:04;;;;;;;;;;;21.00;60.70;;;;;;20976138;28;19916;-80
2021/08/03 15:39:06;;;;;;;;;;;21.00;60.80;;;;;;20993778;28;19904;-79
2021/08/03 15:49:06;;;;;;;;;;;21.00;60.80;;;;;;20993565;28;19961;-80
2021/08/03 15:59:07;;;;;;;;;;;21.00;60.90;;;;;;20992663;28;20409;-80
2021/08/03 16:09:07;;;;;;;;;;;21.00;60.90;;;;;;20993095;28;19916;-79
2021/08/03 16:19:08;;;;;;;;;;;21.10;60.90;;;;;;20992538;28;19949;-79
2021/08/03 16:29:08;;;;;;;;;;;21.00;61.00;;;;;;20958013;28;19960;-79
2021/08/03 16:39:09;;;;;;;;;;;21.00;61.00;;;;;;20973533;28;19912;-78
2021/08/03 16:49:09;;;;;;;;;;;21.10;61.00;;;;;;20972253;28;19916;-77
2021/08/03 16:59:11;;;;;;;;;;;21.10;61.00;;;;;;20989657;28;19915;-78
2021/08/03 17:09:13;;;;;;;;;;;21.10;61.00;;;;;;20970916;28;20445;-80
2021/08/03 17:19:20;;;;;;;;;;;21.00;60.90;;;;;;20970320;28;19912;-80
2021/08/03 17:29:21;;;;;;;;;;;20.90;60.80;;;;;;20970161;28;19959;-80
2021/08/03 17:39:21;;;;;;;;;;;21.10;60.80;;;;;;20957950;28;19908;-79
2021/08/03 17:49:22;;;;;;;;;;;21.10;60.80;;;;;;20989162;28;19963;-79
2021/08/03 17:59:23;;;;;;;;;;;21.00;60.70;;;;;;20999683;28;19908;-76
2021/08/03 18:09:23;;;;;;;;;;;21.00;60.70;;;;;;20981336;28;19920;-80
2021/08/03 18:19:24;;;;;;;;;;;21.00;60.70;;;;;;20980699;28;19915;-79
2021/08/03 18:29:44;;;;;;;;;;;21.00;60.70;;;;;;20976172;28;20363;-80
2021/08/03 18:39:48;;;;;;;;;;;21.00;60.70;;;;;;20987590;28;19940;-80
2021/08/03 18:49:48;;;;;;;;;;;21.00;60.60;;;;;;20994567;28;19920;-79
2021/08/03 18:59:49;;;;;;;;;;;21.00;60.60;;;;;;20993760;28;19919;-79
2021/08/03 19:09:55;;;;;;;;;;;21.00;60.70;;;;;;20993878;28;20529;-79
2021/08/03 19:19:57;;;;;;;;;;;21.00;60.80;;;;;;20978903;28;19984;-79
2021/08/03 19:29:58;;;;;;;;;;;21.00;60.90;;;;;;20993797;28;19963;-79
2021/08/03 19:39:58;;;;;;;;;;;21.00;61.00;;;;;;20972395;28;20370;-79
2021/08/03 19:50:00;;;;;;;;;;;21.00;61.10;;;;;;20988762;28;19924;-79
2021/08/03 20:00:04;;;;;;;;;;;21.00;61.10;;;;;;20990014;28;19919;-79
2021/08/03 20:10:10;;;;;;;;;;;21.00;61.20;;;;;;20983673;28;20291;-78
2021/08/03 20:20:12;;;;;;;;;;;21.00;61.30;;;;;;20968935;28;19912;-78
2021/08/03 20:30:17;;;;;;;;;;;21.00;61.30;;;;;;20988751;28;19923;-79
2021/08/03 20:40:25;;;;;;;;;;;21.00;61.40;;;;;;20971724;28;19935;-78
2021/08/03 20:50:28;;;;;;;;;;;21.00;61.50;;;;;;20989630;28;19920;-77
2021/08/03 21:00:28;;;;;;;;;;;20.90;61.50;;;;;;20987904;28;19913;-78
2021/08/03 21:10:29;;;;;;;;;;;21.00;61.60;;;;;;20970582;28;19917;-78
2021/08/03 21:20:29;;;;;;;;;;;20.90;61.50;;;;;;20986447;28;19918;-78
2021/08/03 21:30:49;;;;;;;;;;;20.90;61.60;;;;;;21001599;28;20362;-78
2021/08/03 21:41:08;;;;;;;;;;;20.90;61.60;;;;;;20998656;28;19912;-78
2021/08/03 21:51:28;;;;;;;;;;;20.90;61.70;;;;;;21000358;28;20007;-78
2021/08/03 22:01:28;;;;;;;;;;;20.90;61.80;;;;;;21001271;28;20001;-79
2021/08/03 22:11:29;;;;;;;;;;;20.90;61.80;;;;;;20982141;28;20022;-79
2021/08/03 22:21:29;;;;;;;;;;;20.90;61.80;;;;;;20998241;28;19953;-78
2021/08/03 22:31:30;;;;;;;;;;;21.00;62.00;;;;;;20980226;28;19917;-78
2021/08/03 22:41:30;;;;;;;;;;;20.90;62.00;;;;;;20962477;28;20343;-77
2021/08/03 22:51:31;;;;;;;;;;;20.90;62.00;;;;;;20978460;28;19917;-78
2021/08/03 23:01:31;;;;;;;;;;;20.90;62.00;;;;;;20995924;28;19946;-77
2021/08/03 23:11:33;;;;;;;;;;;20.90;62.00;;;;;;20977358;28;19916;-78
2021/08/03 23:21:33;;;;;;;;;;;20.90;62.00;;;;;;20992791;28;19920;-77
2021/08/03 23:31:34;;;;;;;;;;;20.90;62.10;;;;;;20975800;28;20305;-78
2021/08/03 23:41:34;;;;;;;;;;;20.90;62.10;;;;;;20992448;28;19908;-78
2021/08/03 23:51:35;;;;;;;;;;;20.80;62.00;;;;;;20973276;28;20397;-78
